Terminal Aerodrome Forecast
Issued by NWS

Home | Current Version | Previous Version | Text Only | Print | Product List | Glossary On
Versions: 1 2 3 4 5 6 7 8 9 10 11 12 13 14 15 16 17 18 19
000
FTUS45 KRIW 241400 AAA
TAFCPR
TAF AMD
KCPR 241420Z 2414/2512 03008KT 6SM -RA BR SCT010 OVC020
      TEMPO 2414/2418 3SM -RA BR OVC010
     FM241900 06012KT P6SM VCSH SCT025 OVC040
     FM242100 03011KT P6SM VCTS SCT025 BKN040CB
     FM250300 02009KT 6SM -SHRA BR SCT015 OVC025=

USA.gov is the U.S. government's official web portal to all federal, state and local government web resources and services.